sensor_id;sensor_type;location;lat;lon;timestamp;temperature;humidity
51815;DHT22;37874;53.158;6.766;2023-06-04T00:01:36;24.80;46.20
51815;DHT22;37874;53.158;6.766;2023-06-04T00:04:02;24.80;46.30
51815;DHT22;37874;53.158;6.766;2023-06-04T00:06:28;24.80;46.30
51815;DHT22;37874;53.158;6.766;2023-06-04T00:08:54;24.80;46.30
51815;DHT22;37874;53.158;6.766;2023-06-04T00:11:20;24.80;46.40
51815;DHT22;37874;53.158;6.766;2023-06-04T00:13:46;24.80;46.40
51815;DHT22;37874;53.158;6.766;2023-06-04T00:16:12;24.70;46.40
51815;DHT22;37874;53.158;6.766;2023-06-04T00:18:38;24.70;46.40
51815;DHT22;37874;53.158;6.766;2023-06-04T00:21:04;24.70;46.40
51815;DHT22;37874;53.158;6.766;2023-06-04T00:23:30;24.70;46.40
51815;DHT22;37874;53.158;6.766;2023-06-04T00:25:56;24.70;46.50
51815;DHT22;37874;53.158;6.766;2023-06-04T00:28:21;24.70;46.40
51815;DHT22;37874;53.158;6.766;2023-06-04T00:30:47;24.70;46.40
51815;DHT22;37874;53.158;6.766;2023-06-04T00:33:13;24.70;46.40
51815;DHT22;37874;53.158;6.766;2023-06-04T00:35:39;24.60;46.40
51815;DHT22;37874;53.158;6.766;2023-06-04T00:38:05;24.60;46.40
51815;DHT22;37874;53.158;6.766;2023-06-04T00:40:30;24.60;46.50
51815;DHT22;37874;53.158;6.766;2023-06-04T00:42:56;24.60;46.50
51815;DHT22;37874;53.158;6.766;2023-06-04T00:45:23;24.60;46.50
51815;DHT22;37874;53.158;6.766;2023-06-04T00:47:52;24.60;46.50
51815;DHT22;37874;53.158;6.766;2023-06-04T00:50:18;24.60;46.60
51815;DHT22;37874;53.158;6.766;2023-06-04T00:52:47;24.60;46.60
51815;DHT22;37874;53.158;6.766;2023-06-04T00:55:13;24.60;46.60
51815;DHT22;37874;53.158;6.766;2023-06-04T00:57:39;24.70;46.70
51815;DHT22;37874;53.158;6.766;2023-06-04T01:00:05;24.60;46.60
51815;DHT22;37874;53.158;6.766;2023-06-04T01:02:33;24.60;46.70
51815;DHT22;37874;53.158;6.766;2023-06-04T01:08:03;24.50;46.60
51815;DHT22;37874;53.158;6.766;2023-06-04T01:10:52;24.50;46.60
51815;DHT22;37874;53.158;6.766;2023-06-04T01:13:55;24.50;46.70
51815;DHT22;37874;53.158;6.766;2023-06-04T01:26:13;24.40;46.70
51815;DHT22;37874;53.158;6.766;2023-06-04T01:29:16;24.50;46.90
51815;DHT22;37874;53.158;6.766;2023-06-04T01:32:01;24.40;46.70
51815;DHT22;37874;53.158;6.766;2023-06-04T01:34:46;24.40;46.70
51815;DHT22;37874;53.158;6.766;2023-06-04T01:39:57;24.40;46.80
51815;DHT22;37874;53.158;6.766;2023-06-04T01:54:22;24.30;46.80
51815;DHT22;37874;53.158;6.766;2023-06-04T02:03:05;24.30;46.90
51815;DHT22;37874;53.158;6.766;2023-06-04T02:05:31;24.30;46.90
51815;DHT22;37874;53.158;6.766;2023-06-04T02:07:57;24.30;47.00
51815;DHT22;37874;53.158;6.766;2023-06-04T02:10:22;24.30;47.00
51815;DHT22;37874;53.158;6.766;2023-06-04T02:12:59;24.40;47.00
51815;DHT22;37874;53.158;6.766;2023-06-04T02:15:26;24.30;46.90
51815;DHT22;37874;53.158;6.766;2023-06-04T02:17:55;24.40;47.00
51815;DHT22;37874;53.158;6.766;2023-06-04T02:20:20;24.20;46.90
51815;DHT22;37874;53.158;6.766;2023-06-04T02:22:46;24.20;46.90
51815;DHT22;37874;53.158;6.766;2023-06-04T02:25:13;24.20;46.90
51815;DHT22;37874;53.158;6.766;2023-06-04T02:27:38;24.20;46.90
51815;DHT22;37874;53.158;6.766;2023-06-04T02:30:04;24.10;46.90
51815;DHT22;37874;53.158;6.766;2023-06-04T02:32:31;24.20;47.10
51815;DHT22;37874;53.158;6.766;2023-06-04T02:34:59;24.20;47.10
51815;DHT22;37874;53.158;6.766;2023-06-04T02:37:24;24.20;47.10
51815;DHT22;37874;53.158;6.766;2023-06-04T02:39:50;24.10;47.10
51815;DHT22;37874;53.158;6.766;2023-06-04T02:42:16;24.10;47.10
51815;DHT22;37874;53.158;6.766;2023-06-04T02:44:41;24.10;47.10
51815;DHT22;37874;53.158;6.766;2023-06-04T02:47:07;24.10;47.10
51815;DHT22;37874;53.158;6.766;2023-06-04T02:49:33;24.10;47.10
51815;DHT22;37874;53.158;6.766;2023-06-04T02:51:58;24.10;47.20
51815;DHT22;37874;53.158;6.766;2023-06-04T02:54:24;24.10;47.20
51815;DHT22;37874;53.158;6.766;2023-06-04T02:56:49;24.10;47.20
51815;DHT22;37874;53.158;6.766;2023-06-04T02:59:16;24.10;47.30
51815;DHT22;37874;53.158;6.766;2023-06-04T03:01:42;24.00;47.20
51815;DHT22;37874;53.158;6.766;2023-06-04T03:04:08;24.10;47.30
51815;DHT22;37874;53.158;6.766;2023-06-04T03:06:36;24.10;47.30
51815;DHT22;37874;53.158;6.766;2023-06-04T03:09:04;24.10;47.30
51815;DHT22;37874;53.158;6.766;2023-06-04T03:11:30;24.10;47.30
51815;DHT22;37874;53.158;6.766;2023-06-04T03:13:55;24.00;47.20
51815;DHT22;37874;53.158;6.766;2023-06-04T03:16:22;24.10;47.30
51815;DHT22;37874;53.158;6.766;2023-06-04T03:18:47;24.00;47.20
51815;DHT22;37874;53.158;6.766;2023-06-04T03:21:13;24.00;47.20
51815;DHT22;37874;53.158;6.766;2023-06-04T03:23:39;24.10;47.30
51815;DHT22;37874;53.158;6.766;2023-06-04T03:26:06;24.00;47.20
51815;DHT22;37874;53.158;6.766;2023-06-04T03:28:32;23.90;47.20
51815;DHT22;37874;53.158;6.766;2023-06-04T03:30:59;24.00;47.30
51815;DHT22;37874;53.158;6.766;2023-06-04T03:33:25;24.00;47.20
51815;DHT22;37874;53.158;6.766;2023-06-04T03:35:51;24.00;47.30
51815;DHT22;37874;53.158;6.766;2023-06-04T03:38:18;24.00;47.20
51815;DHT22;37874;53.158;6.766;2023-06-04T03:40:44;23.90;47.20
51815;DHT22;37874;53.158;6.766;2023-06-04T03:43:10;24.00;47.30
51815;DHT22;37874;53.158;6.766;2023-06-04T03:45:36;23.90;47.20
51815;DHT22;37874;53.158;6.766;2023-06-04T03:48:02;24.00;47.30
51815;DHT22;37874;53.158;6.766;2023-06-04T03:50:27;23.90;47.20
51815;DHT22;37874;53.158;6.766;2023-06-04T03:52:53;23.90;47.30
51815;DHT22;37874;53.158;6.766;2023-06-04T03:55:19;23.90;47.20
51815;DHT22;37874;53.158;6.766;2023-06-04T03:57:44;23.90;47.20
51815;DHT22;37874;53.158;6.766;2023-06-04T04:00:10;23.80;47.10
51815;DHT22;37874;53.158;6.766;2023-06-04T04:02:41;23.90;47.20
51815;DHT22;37874;53.158;6.766;2023-06-04T04:05:08;23.90;47.20
51815;DHT22;37874;53.158;6.766;2023-06-04T04:07:34;23.90;47.20
51815;DHT22;37874;53.158;6.766;2023-06-04T04:10:00;23.90;47.20
51815;DHT22;37874;53.158;6.766;2023-06-04T04:12:26;23.90;47.10
51815;DHT22;37874;53.158;6.766;2023-06-04T04:14:51;23.90;47.30
51815;DHT22;37874;53.158;6.766;2023-06-04T04:17:17;23.90;47.20
51815;DHT22;37874;53.158;6.766;2023-06-04T04:19:43;23.90;47.20
51815;DHT22;37874;53.158;6.766;2023-06-04T04:22:10;23.90;47.20
51815;DHT22;37874;53.158;6.766;2023-06-04T04:24:36;23.90;47.20
51815;DHT22;37874;53.158;6.766;2023-06-04T04:27:03;23.90;47.20
51815;DHT22;37874;53.158;6.766;2023-06-04T04:29:30;23.90;47.80
51815;DHT22;37874;53.158;6.766;2023-06-04T04:31:58;23.90;47.10
51815;DHT22;37874;53.158;6.766;2023-06-04T04:34:26;23.90;47.70
51815;DHT22;37874;53.158;6.766;2023-06-04T04:36:52;23.90;47.10
51815;DHT22;37874;53.158;6.766;2023-06-04T04:39:23;23.90;47.10
51815;DHT22;37874;53.158;6.766;2023-06-04T04:41:49;24.00;47.20
51815;DHT22;37874;53.158;6.766;2023-06-04T04:44:15;23.90;47.10
51815;DHT22;37874;53.158;6.766;2023-06-04T04:46:40;23.90;47.10
51815;DHT22;37874;53.158;6.766;2023-06-04T04:49:06;23.90;47.10
51815;DHT22;37874;53.158;6.766;2023-06-04T04:51:32;23.90;47.00
51815;DHT22;37874;53.158;6.766;2023-06-04T04:54:00;23.90;47.00
51815;DHT22;37874;53.158;6.766;2023-06-04T04:56:27;23.90;47.00
51815;DHT22;37874;53.158;6.766;2023-06-04T04:58:53;23.90;47.00
51815;DHT22;37874;53.158;6.766;2023-06-04T05:01:19;23.90;47.00
51815;DHT22;37874;53.158;6.766;2023-06-04T05:03:45;24.00;47.00
51815;DHT22;37874;53.158;6.766;2023-06-04T05:06:10;23.90;46.90
51815;DHT22;37874;53.158;6.766;2023-06-04T05:08:36;24.00;46.90
51815;DHT22;37874;53.158;6.766;2023-06-04T05:11:01;24.00;46.90
51815;DHT22;37874;53.158;6.766;2023-06-04T05:13:27;24.10;46.90
51815;DHT22;37874;53.158;6.766;2023-06-04T05:15:53;24.00;46.90
51815;DHT22;37874;53.158;6.766;2023-06-04T05:18:19;23.80;46.70
51815;DHT22;37874;53.158;6.766;2023-06-04T05:21:03;24.00;46.80
51815;DHT22;37874;53.158;6.766;2023-06-04T05:23:28;24.00;46.80
51815;DHT22;37874;53.158;6.766;2023-06-04T05:25:59;23.90;46.70
51815;DHT22;37874;53.158;6.766;2023-06-04T05:28:26;23.90;46.60
51815;DHT22;37874;53.158;6.766;2023-06-04T05:30:52;24.00;46.60
51815;DHT22;37874;53.158;6.766;2023-06-04T05:33:24;24.00;46.60
51815;DHT22;37874;53.158;6.766;2023-06-04T05:35:50;24.00;46.60
51815;DHT22;37874;53.158;6.766;2023-06-04T05:38:17;24.40;46.70
51815;DHT22;37874;53.158;6.766;2023-06-04T05:40:46;24.10;46.50
51815;DHT22;37874;53.158;6.766;2023-06-04T05:43:12;24.10;46.50
51815;DHT22;37874;53.158;6.766;2023-06-04T05:45:38;24.10;46.40
51815;DHT22;37874;53.158;6.766;2023-06-04T05:48:05;24.10;46.40
51815;DHT22;37874;53.158;6.766;2023-06-04T05:50:31;24.10;46.40
51815;DHT22;37874;53.158;6.766;2023-06-04T05:52:57;24.10;46.30
51815;DHT22;37874;53.158;6.766;2023-06-04T05:55:25;24.10;46.30
51815;DHT22;37874;53.158;6.766;2023-06-04T05:57:50;24.10;46.20
51815;DHT22;37874;53.158;6.766;2023-06-04T06:00:19;24.10;46.10
51815;DHT22;37874;53.158;6.766;2023-06-04T06:02:45;24.20;46.20
51815;DHT22;37874;53.158;6.766;2023-06-04T06:05:14;24.20;46.10
51815;DHT22;37874;53.158;6.766;2023-06-04T06:07:41;24.20;46.10
51815;DHT22;37874;53.158;6.766;2023-06-04T06:10:06;24.20;46.10
51815;DHT22;37874;53.158;6.766;2023-06-04T06:12:32;24.20;46.10
51815;DHT22;37874;53.158;6.766;2023-06-04T06:14:58;24.20;46.00
51815;DHT22;37874;53.158;6.766;2023-06-04T06:17:23;24.20;45.90
51815;DHT22;37874;53.158;6.766;2023-06-04T06:19:49;24.20;45.90
51815;DHT22;37874;53.158;6.766;2023-06-04T06:22:15;24.20;45.80
51815;DHT22;37874;53.158;6.766;2023-06-04T06:24:41;24.20;45.70
51815;DHT22;37874;53.158;6.766;2023-06-04T06:27:06;24.30;45.70
51815;DHT22;37874;53.158;6.766;2023-06-04T06:29:32;24.30;45.80
51815;DHT22;37874;53.158;6.766;2023-06-04T06:31:59;24.20;45.70
51815;DHT22;37874;53.158;6.766;2023-06-04T06:34:24;24.30;45.70
51815;DHT22;37874;53.158;6.766;2023-06-04T06:36:50;24.30;45.70
51815;DHT22;37874;53.158;6.766;2023-06-04T06:39:16;24.30;45.70
51815;DHT22;37874;53.158;6.766;2023-06-04T06:41:42;24.30;45.60
51815;DHT22;37874;53.158;6.766;2023-06-04T06:44:07;24.30;45.60
51815;DHT22;37874;53.158;6.766;2023-06-04T06:46:33;24.30;45.60
51815;DHT22;37874;53.158;6.766;2023-06-04T06:48:59;24.30;45.70
51815;DHT22;37874;53.158;6.766;2023-06-04T06:51:25;24.40;45.60
51815;DHT22;37874;53.158;6.766;2023-06-04T06:53:50;24.30;45.40
51815;DHT22;37874;53.158;6.766;2023-06-04T06:56:16;24.40;45.50
51815;DHT22;37874;53.158;6.766;2023-06-04T06:58:46;24.40;45.40
51815;DHT22;37874;53.158;6.766;2023-06-04T07:01:12;24.40;45.40
51815;DHT22;37874;53.158;6.766;2023-06-04T07:03:38;24.30;45.30
51815;DHT22;37874;53.158;6.766;2023-06-04T07:06:05;24.40;45.30
51815;DHT22;37874;53.158;6.766;2023-06-04T09:09:45;24.80;43.90
51815;DHT22;37874;53.158;6.766;2023-06-04T09:12:13;24.80;43.80
51815;DHT22;37874;53.158;6.766;2023-06-04T09:14:40;24.80;43.60
51815;DHT22;37874;53.158;6.766;2023-06-04T09:17:06;24.90;43.60
51815;DHT22;37874;53.158;6.766;2023-06-04T09:19:31;25.10;43.70
51815;DHT22;37874;53.158;6.766;2023-06-04T09:21:58;25.00;43.50
51815;DHT22;37874;53.158;6.766;2023-06-04T09:24:38;25.00;43.40
51815;DHT22;37874;53.158;6.766;2023-06-04T09:27:13;24.90;43.10
51815;DHT22;37874;53.158;6.766;2023-06-04T09:29:39;25.10;43.10
51815;DHT22;37874;53.158;6.766;2023-06-04T09:32:05;25.10;43.00
51815;DHT22;37874;53.158;6.766;2023-06-04T09:34:31;25.20;43.20
51815;DHT22;37874;53.158;6.766;2023-06-04T09:36:57;25.20;43.00
51815;DHT22;37874;53.158;6.766;2023-06-04T09:39:24;25.20;42.80
51815;DHT22;37874;53.158;6.766;2023-06-04T09:42:02;25.40;42.90
51815;DHT22;37874;53.158;6.766;2023-06-04T09:44:31;25.30;42.80
51815;DHT22;37874;53.158;6.766;2023-06-04T09:46:57;25.30;42.90
51815;DHT22;37874;53.158;6.766;2023-06-04T09:49:24;25.40;42.80
51815;DHT22;37874;53.158;6.766;2023-06-04T09:51:50;25.40;42.70
51815;DHT22;37874;53.158;6.766;2023-06-04T09:54:15;25.40;42.70
51815;DHT22;37874;53.158;6.766;2023-06-04T09:56:41;25.40;42.50
51815;DHT22;37874;53.158;6.766;2023-06-04T09:59:09;25.40;42.60
51815;DHT22;37874;53.158;6.766;2023-06-04T10:01:39;25.50;42.50
51815;DHT22;37874;53.158;6.766;2023-06-04T10:04:07;25.50;42.50
51815;DHT22;37874;53.158;6.766;2023-06-04T10:06:35;25.50;42.20
51815;DHT22;37874;53.158;6.766;2023-06-04T10:09:07;25.60;42.20
51815;DHT22;37874;53.158;6.766;2023-06-04T10:11:35;25.60;42.20
51815;DHT22;37874;53.158;6.766;2023-06-04T10:14:04;25.70;42.20
51815;DHT22;37874;53.158;6.766;2023-06-04T10:16:33;25.70;42.20
51815;DHT22;37874;53.158;6.766;2023-06-04T10:19:00;25.70;42.20
51815;DHT22;37874;53.158;6.766;2023-06-04T10:21:27;25.70;42.00
51815;DHT22;37874;53.158;6.766;2023-06-04T10:23:53;25.80;41.90
51815;DHT22;37874;53.158;6.766;2023-06-04T10:26:19;25.90;41.90
51815;DHT22;37874;53.158;6.766;2023-06-04T10:28:45;25.80;41.90
51815;DHT22;37874;53.158;6.766;2023-06-04T10:31:11;25.90;41.90
51815;DHT22;37874;53.158;6.766;2023-06-04T10:33:36;25.90;41.80
51815;DHT22;37874;53.158;6.766;2023-06-04T10:36:23;25.90;41.60
51815;DHT22;37874;53.158;6.766;2023-06-04T10:38:50;26.00;41.60
51815;DHT22;37874;53.158;6.766;2023-06-04T10:41:17;26.00;41.60
51815;DHT22;37874;53.158;6.766;2023-06-04T10:43:45;26.00;41.50
51815;DHT22;37874;53.158;6.766;2023-06-04T10:46:15;26.00;41.40
51815;DHT22;37874;53.158;6.766;2023-06-04T10:48:53;26.00;41.40
51815;DHT22;37874;53.158;6.766;2023-06-04T10:51:30;26.00;41.50
51815;DHT22;37874;53.158;6.766;2023-06-04T10:54:00;26.00;41.50
51815;DHT22;37874;53.158;6.766;2023-06-04T10:56:27;26.00;41.40
51815;DHT22;37874;53.158;6.766;2023-06-04T10:58:52;26.00;41.50
51815;DHT22;37874;53.158;6.766;2023-06-04T11:01:25;26.00;41.50
51815;DHT22;37874;53.158;6.766;2023-06-04T11:03:51;26.00;41.50
51815;DHT22;37874;53.158;6.766;2023-06-04T11:06:17;26.00;41.50
51815;DHT22;37874;53.158;6.766;2023-06-04T11:08:46;26.00;41.60
51815;DHT22;37874;53.158;6.766;2023-06-04T11:11:13;26.00;41.60
51815;DHT22;37874;53.158;6.766;2023-06-04T11:13:40;26.00;41.60
51815;DHT22;37874;53.158;6.766;2023-06-04T11:16:16;26.00;41.60
51815;DHT22;37874;53.158;6.766;2023-06-04T11:18:42;25.90;41.60
51815;DHT22;37874;53.158;6.766;2023-06-04T11:21:08;25.90;41.70
51815;DHT22;37874;53.158;6.766;2023-06-04T11:23:33;25.90;41.70
51815;DHT22;37874;53.158;6.766;2023-06-04T11:25:59;25.90;41.60
51815;DHT22;37874;53.158;6.766;2023-06-04T11:28:25;26.00;41.80
51815;DHT22;37874;53.158;6.766;2023-06-04T11:31:01;26.00;41.80
51815;DHT22;37874;53.158;6.766;2023-06-04T11:33:50;26.00;41.80
51815;DHT22;37874;53.158;6.766;2023-06-04T11:36:25;26.00;41.80
51815;DHT22;37874;53.158;6.766;2023-06-04T11:38:55;26.00;41.70
51815;DHT22;37874;53.158;6.766;2023-06-04T11:41:22;26.00;41.60
51815;DHT22;37874;53.158;6.766;2023-06-04T11:43:48;26.00;41.60
51815;DHT22;37874;53.158;6.766;2023-06-04T11:46:14;26.10;41.70
51815;DHT22;37874;53.158;6.766;2023-06-04T11:48:40;26.10;41.60
51815;DHT22;37874;53.158;6.766;2023-06-04T11:51:08;26.10;41.60
51815;DHT22;37874;53.158;6.766;2023-06-04T11:53:36;26.10;41.50
51815;DHT22;37874;53.158;6.766;2023-06-04T11:56:02;26.20;41.60
51815;DHT22;37874;53.158;6.766;2023-06-04T11:58:29;26.20;41.40
51815;DHT22;37874;53.158;6.766;2023-06-04T12:00:56;26.30;41.50
51815;DHT22;37874;53.158;6.766;2023-06-04T12:03:38;26.20;41.40
51815;DHT22;37874;53.158;6.766;2023-06-04T12:06:13;26.30;41.40
51815;DHT22;37874;53.158;6.766;2023-06-04T12:11:31;26.40;41.30
51815;DHT22;37874;53.158;6.766;2023-06-04T12:13:58;26.50;41.10
51815;DHT22;37874;53.158;6.766;2023-06-04T12:16:25;26.60;41.10
51815;DHT22;37874;53.158;6.766;2023-06-04T12:18:51;26.60;41.10
51815;DHT22;37874;53.158;6.766;2023-06-04T12:21:20;26.70;41.00
51815;DHT22;37874;53.158;6.766;2023-06-04T14:25:06;32.50;33.30
51815;DHT22;37874;53.158;6.766;2023-06-04T14:27:33;32.40;33.30
51815;DHT22;37874;53.158;6.766;2023-06-04T14:30:00;32.50;33.20
51815;DHT22;37874;53.158;6.766;2023-06-04T14:32:26;32.50;33.30
51815;DHT22;37874;53.158;6.766;2023-06-04T14:34:51;32.50;33.20
51815;DHT22;37874;53.158;6.766;2023-06-04T14:37:17;32.50;33.20
51815;DHT22;37874;53.158;6.766;2023-06-04T14:39:45;32.60;33.20
51815;DHT22;37874;53.158;6.766;2023-06-04T14:42:10;32.70;33.20
51815;DHT22;37874;53.158;6.766;2023-06-04T14:44:36;32.70;33.10
51815;DHT22;37874;53.158;6.766;2023-06-04T14:47:02;32.70;33.20
51815;DHT22;37874;53.158;6.766;2023-06-04T14:49:29;32.70;33.20
51815;DHT22;37874;53.158;6.766;2023-06-04T14:51:55;32.80;33.00
51815;DHT22;37874;53.158;6.766;2023-06-04T14:54:21;32.90;32.90
51815;DHT22;37874;53.158;6.766;2023-06-04T14:56:46;33.00;32.80
51815;DHT22;37874;53.158;6.766;2023-06-04T14:59:12;33.10;32.80
51815;DHT22;37874;53.158;6.766;2023-06-04T15:01:38;33.20;32.70
51815;DHT22;37874;53.158;6.766;2023-06-04T15:04:06;33.20;32.60
51815;DHT22;37874;53.158;6.766;2023-06-04T15:06:32;33.30;32.60
51815;DHT22;37874;53.158;6.766;2023-06-04T15:08:57;33.30;32.50
51815;DHT22;37874;53.158;6.766;2023-06-04T15:11:23;33.30;32.60
51815;DHT22;37874;53.158;6.766;2023-06-04T15:13:49;33.20;32.50
51815;DHT22;37874;53.158;6.766;2023-06-04T15:16:15;33.20;32.70
51815;DHT22;37874;53.158;6.766;2023-06-04T15:18:40;33.20;32.70
51815;DHT22;37874;53.158;6.766;2023-06-04T15:21:06;33.20;32.80
51815;DHT22;37874;53.158;6.766;2023-06-04T15:23:31;33.20;32.80
51815;DHT22;37874;53.158;6.766;2023-06-04T15:25:57;33.20;32.80
51815;DHT22;37874;53.158;6.766;2023-06-04T15:28:22;33.20;32.70
51815;DHT22;37874;53.158;6.766;2023-06-04T15:30:48;33.10;32.90
51815;DHT22;37874;53.158;6.766;2023-06-04T15:33:14;33.10;33.00
51815;DHT22;37874;53.158;6.766;2023-06-04T15:35:41;33.20;33.10
51815;DHT22;37874;53.158;6.766;2023-06-04T15:38:07;33.30;33.00
51815;DHT22;37874;53.158;6.766;2023-06-04T15:40:33;33.30;32.90
51815;DHT22;37874;53.158;6.766;2023-06-04T15:42:58;33.20;32.90
51815;DHT22;37874;53.158;6.766;2023-06-04T15:45:24;33.30;33.00
51815;DHT22;37874;53.158;6.766;2023-06-04T15:47:51;33.20;32.80
51815;DHT22;37874;53.158;6.766;2023-06-04T15:50:17;33.30;33.00
51815;DHT22;37874;53.158;6.766;2023-06-04T15:52:42;33.20;33.00
51815;DHT22;37874;53.158;6.766;2023-06-04T15:55:08;33.20;33.10
51815;DHT22;37874;53.158;6.766;2023-06-04T15:57:33;33.20;33.10
51815;DHT22;37874;53.158;6.766;2023-06-04T15:59:59;33.10;33.20
51815;DHT22;37874;53.158;6.766;2023-06-04T16:02:25;33.10;33.10
51815;DHT22;37874;53.158;6.766;2023-06-04T16:04:51;33.10;33.30
51815;DHT22;37874;53.158;6.766;2023-06-04T16:07:17;33.30;33.50
51815;DHT22;37874;53.158;6.766;2023-06-04T16:09:42;33.10;33.30
51815;DHT22;37874;53.158;6.766;2023-06-04T16:12:08;33.00;33.50
51815;DHT22;37874;53.158;6.766;2023-06-04T16:14:34;32.90;33.50
51815;DHT22;37874;53.158;6.766;2023-06-04T16:16:59;32.90;33.40
51815;DHT22;37874;53.158;6.766;2023-06-04T16:19:25;32.90;33.60
51815;DHT22;37874;53.158;6.766;2023-06-04T16:21:50;32.90;33.50
51815;DHT22;37874;53.158;6.766;2023-06-04T16:24:16;32.90;33.70
51815;DHT22;37874;53.158;6.766;2023-06-04T16:26:41;32.70;33.70
51815;DHT22;37874;53.158;6.766;2023-06-04T16:29:07;32.70;33.80
51815;DHT22;37874;53.158;6.766;2023-06-04T16:31:33;32.60;34.00
51815;DHT22;37874;53.158;6.766;2023-06-04T16:33:58;32.60;34.00
51815;DHT22;37874;53.158;6.766;2023-06-04T16:36:24;32.70;34.70
51815;DHT22;37874;53.158;6.766;2023-06-04T16:38:50;32.50;34.00
51815;DHT22;37874;53.158;6.766;2023-06-04T16:41:17;32.50;34.10
51815;DHT22;37874;53.158;6.766;2023-06-04T16:43:43;32.50;34.20
51815;DHT22;37874;53.158;6.766;2023-06-04T16:46:08;32.40;34.30
51815;DHT22;37874;53.158;6.766;2023-06-04T16:48:34;32.40;34.40
51815;DHT22;37874;53.158;6.766;2023-06-04T16:50:59;32.30;34.40
51815;DHT22;37874;53.158;6.766;2023-06-04T16:53:25;32.30;34.60
51815;DHT22;37874;53.158;6.766;2023-06-04T16:55:51;32.20;34.60
51815;DHT22;37874;53.158;6.766;2023-06-04T16:58:16;32.10;34.70
51815;DHT22;37874;53.158;6.766;2023-06-04T17:00:42;32.00;34.90
51815;DHT22;37874;53.158;6.766;2023-06-04T17:03:08;32.00;34.90
51815;DHT22;37874;53.158;6.766;2023-06-04T17:05:33;31.90;35.00
51815;DHT22;37874;53.158;6.766;2023-06-04T17:07:59;31.80;35.10
51815;DHT22;37874;53.158;6.766;2023-06-04T17:10:30;31.70;35.30
51815;DHT22;37874;53.158;6.766;2023-06-04T17:12:58;31.50;35.50
51815;DHT22;37874;53.158;6.766;2023-06-04T17:15:23;31.40;35.60
51815;DHT22;37874;53.158;6.766;2023-06-04T17:17:49;31.30;35.80
51815;DHT22;37874;53.158;6.766;2023-06-04T17:20:15;31.20;36.00
51815;DHT22;37874;53.158;6.766;2023-06-04T17:22:40;31.10;36.20
51815;DHT22;37874;53.158;6.766;2023-06-04T17:25:07;30.90;36.30
51815;DHT22;37874;53.158;6.766;2023-06-04T17:27:33;30.80;36.60
51815;DHT22;37874;53.158;6.766;2023-06-04T17:29:58;30.80;36.80
51815;DHT22;37874;53.158;6.766;2023-06-04T17:32:24;30.60;36.80
51815;DHT22;37874;53.158;6.766;2023-06-04T17:34:50;30.60;37.00
51815;DHT22;37874;53.158;6.766;2023-06-04T17:37:16;30.60;37.10
51815;DHT22;37874;53.158;6.766;2023-06-04T17:39:42;30.60;37.30
51815;DHT22;37874;53.158;6.766;2023-06-04T17:42:07;30.60;37.30
51815;DHT22;37874;53.158;6.766;2023-06-04T17:44:33;30.50;37.30
51815;DHT22;37874;53.158;6.766;2023-06-04T17:46:58;30.40;37.30
51815;DHT22;37874;53.158;6.766;2023-06-04T17:49:28;30.40;37.60
51815;DHT22;37874;53.158;6.766;2023-06-04T17:51:54;30.40;37.60
51815;DHT22;37874;53.158;6.766;2023-06-04T17:54:19;30.30;37.70
51815;DHT22;37874;53.158;6.766;2023-06-04T17:56:45;30.20;37.80
51815;DHT22;37874;53.158;6.766;2023-06-04T17:59:11;30.20;37.90
51815;DHT22;37874;53.158;6.766;2023-06-04T18:01:36;30.30;38.20
51815;DHT22;37874;53.158;6.766;2023-06-04T18:04:02;30.00;38.00
51815;DHT22;37874;53.158;6.766;2023-06-04T18:06:30;29.90;38.10
51815;DHT22;37874;53.158;6.766;2023-06-04T18:08:56;29.80;38.40
51815;DHT22;37874;53.158;6.766;2023-06-04T18:11:22;29.80;38.40
51815;DHT22;37874;53.158;6.766;2023-06-04T18:13:47;29.70;38.50
51815;DHT22;37874;53.158;6.766;2023-06-04T18:16:13;29.60;38.70
51815;DHT22;37874;53.158;6.766;2023-06-04T18:18:43;29.60;38.80
51815;DHT22;37874;53.158;6.766;2023-06-04T18:21:10;29.40;38.70
51815;DHT22;37874;53.158;6.766;2023-06-04T18:23:36;29.40;38.90
51815;DHT22;37874;53.158;6.766;2023-06-04T18:26:02;29.30;38.90
51815;DHT22;37874;53.158;6.766;2023-06-04T18:28:28;29.30;39.10
51815;DHT22;37874;53.158;6.766;2023-06-04T18:30:54;29.20;39.20
51815;DHT22;37874;53.158;6.766;2023-06-04T18:33:23;29.10;39.20
51815;DHT22;37874;53.158;6.766;2023-06-04T18:35:51;29.00;39.50
51815;DHT22;37874;53.158;6.766;2023-06-04T18:38:16;28.90;39.50
51815;DHT22;37874;53.158;6.766;2023-06-04T18:40:42;28.90;39.60
51815;DHT22;37874;53.158;6.766;2023-06-04T18:43:07;28.80;39.40
51815;DHT22;37874;53.158;6.766;2023-06-04T18:45:33;28.80;39.60
51815;DHT22;37874;53.158;6.766;2023-06-04T18:47:59;28.80;39.80
51815;DHT22;37874;53.158;6.766;2023-06-04T18:50:24;28.70;40.00
51815;DHT22;37874;53.158;6.766;2023-06-04T18:52:50;28.60;39.90
51815;DHT22;37874;53.158;6.766;2023-06-04T18:55:16;28.60;39.90
51815;DHT22;37874;53.158;6.766;2023-06-04T18:57:42;28.70;40.20
51815;DHT22;37874;53.158;6.766;2023-06-04T19:00:08;28.40;40.40
51815;DHT22;37874;53.158;6.766;2023-06-04T19:02:38;28.40;40.40
51815;DHT22;37874;53.158;6.766;2023-06-04T19:05:04;28.40;40.70
51815;DHT22;37874;53.158;6.766;2023-06-04T19:07:31;28.30;40.60
51815;DHT22;37874;53.158;6.766;2023-06-04T19:09:57;28.30;40.90
51815;DHT22;37874;53.158;6.766;2023-06-04T19:12:24;28.20;40.80
51815;DHT22;37874;53.158;6.766;2023-06-04T19:14:52;28.20;41.10
51815;DHT22;37874;53.158;6.766;2023-06-04T19:17:18;28.10;41.10
51815;DHT22;37874;53.158;6.766;2023-06-04T19:19:48;28.00;41.20
51815;DHT22;37874;53.158;6.766;2023-06-04T19:22:14;27.90;41.10
51815;DHT22;37874;53.158;6.766;2023-06-04T19:24:40;27.90;41.20
51815;DHT22;37874;53.158;6.766;2023-06-04T19:27:06;27.90;41.20
51815;DHT22;37874;53.158;6.766;2023-06-04T19:29:32;27.90;41.20
51815;DHT22;37874;53.158;6.766;2023-06-04T19:31:57;27.90;41.20
51815;DHT22;37874;53.158;6.766;2023-06-04T19:34:23;27.80;41.20
51815;DHT22;37874;53.158;6.766;2023-06-04T19:36:48;27.80;41.30
51815;DHT22;37874;53.158;6.766;2023-06-04T19:39:17;27.70;41.30
51815;DHT22;37874;53.158;6.766;2023-06-04T19:41:42;27.70;41.40
51815;DHT22;37874;53.158;6.766;2023-06-04T19:44:08;27.70;41.50
51815;DHT22;37874;53.158;6.766;2023-06-04T19:46:34;27.60;41.60
51815;DHT22;37874;53.158;6.766;2023-06-04T19:49:02;27.60;41.70
51815;DHT22;37874;53.158;6.766;2023-06-04T19:51:28;27.60;41.80
51815;DHT22;37874;53.158;6.766;2023-06-04T19:53:53;27.50;41.80
51815;DHT22;37874;53.158;6.766;2023-06-04T19:56:20;27.50;41.90
51815;DHT22;37874;53.158;6.766;2023-06-04T19:58:46;27.40;42.00
51815;DHT22;37874;53.158;6.766;2023-06-04T20:01:12;27.40;42.00
51815;DHT22;37874;53.158;6.766;2023-06-04T20:03:38;27.30;42.10
51815;DHT22;37874;53.158;6.766;2023-06-04T20:06:04;27.30;42.20
51815;DHT22;37874;53.158;6.766;2023-06-04T20:08:30;27.20;42.20